Time;durP1;ratioP1;P1;durP2;ratioP2;P2;SDS_P1;SDS_P2;PMS_P1;PMS_P2;Temp;Humidity;BMP_temperature;BMP_pressure;BME280_temperature;BME280_humidity;BME280_pressure;Samples;Min_cycle;Max_cycle;Signal;HPM_P1;HPM_P2
2023/03/18 00:01:07;;;;;;;28.45;15.77;;;;;;;;;;5066950;28;20129;-65
2023/03/18 00:03:36;;;;;;;26.15;16.63;;;;;;;;;;5085348;28;20052;-65
2023/03/18 00:06:04;;;;;;;22.35;16.05;;;;;;;;;;5086372;28;20052;-65
2023/03/18 00:08:32;;;;;;;23.50;14.65;;;;;;;;;;5080900;28;20070;-65
2023/03/18 00:11:00;;;;;;;23.00;15.00;;;;;;;;;;5081927;28;20570;-65
2023/03/18 00:13:28;;;;;;;21.40;14.48;;;;;;;;;;5066475;28;20522;-65
2023/03/18 00:15:56;;;;;;;22.33;14.23;;;;;;;;;;5082257;28;20490;-65
2023/03/18 00:18:23;;;;;;;24.13;15.30;;;;;;;;;;5087351;28;20044;-65
2023/03/18 00:20:50;;;;;;;20.33;14.63;;;;;;;;;;5088339;28;20394;-65
2023/03/18 00:23:18;;;;;;;22.23;15.93;;;;;;;;;;5084931;28;20044;-65
2023/03/18 00:25:47;;;;;;;21.48;15.20;;;;;;;;;;5087473;28;20495;-65
2023/03/18 00:28:15;;;;;;;21.30;15.30;;;;;;;;;;5079204;28;20056;-65
2023/03/18 00:30:43;;;;;;;24.33;16.13;;;;;;;;;;5086857;28;20176;-65
2023/03/18 00:33:11;;;;;;;20.90;15.43;;;;;;;;;;5083446;28;20513;-65
2023/03/18 00:35:38;;;;;;;25.02;15.57;;;;;;;;;;5085243;28;20442;-65
2023/03/18 00:38:08;;;;;;;25.20;15.52;;;;;;;;;;5081921;28;20060;-65
2023/03/18 00:40:53;;;;;;;24.20;16.70;;;;;;;;;;5078423;28;20068;-65
2023/03/18 00:43:21;;;;;;;26.58;16.90;;;;;;;;;;5067015;28;20056;-65
2023/03/18 00:45:50;;;;;;;27.15;18.48;;;;;;;;;;5068034;28;20504;-65
2023/03/18 00:48:18;;;;;;;30.73;18.38;;;;;;;;;;5083123;28;20462;-65
2023/03/18 00:50:45;;;;;;;27.42;18.13;;;;;;;;;;5085832;28;20056;-65
2023/03/18 00:53:13;;;;;;;28.80;19.15;;;;;;;;;;5083312;28;20134;-65
2023/03/18 00:55:40;;;;;;;32.67;19.42;;;;;;;;;;5076339;28;20535;-64
2023/03/18 00:58:08;;;;;;;27.40;19.25;;;;;;;;;;5083680;28;20056;-65
2023/03/18 01:00:36;;;;;;;28.48;19.63;;;;;;;;;;5079326;28;20067;-65
2023/03/18 01:03:05;;;;;;;32.10;21.00;;;;;;;;;;5083392;28;20078;-65
2023/03/18 01:05:33;;;;;;;30.33;20.33;;;;;;;;;;5081838;28;20127;-65
2023/03/18 01:08:00;;;;;;;30.45;20.10;;;;;;;;;;5068844;28;20052;-65
2023/03/18 01:10:29;;;;;;;30.80;20.50;;;;;;;;;;5081819;28;20051;-65
2023/03/18 01:12:56;;;;;;;35.17;21.15;;;;;;;;;;5085840;28;20036;-65
2023/03/18 01:15:24;;;;;;;36.80;22.33;;;;;;;;;;5078063;28;20051;-65
2023/03/18 01:17:55;;;;;;;39.08;22.77;;;;;;;;;;5085161;28;20040;-65
2023/03/18 01:20:24;;;;;;;44.80;25.77;;;;;;;;;;5089616;28;20056;-65
2023/03/18 01:22:52;;;;;;;37.75;26.60;;;;;;;;;;5089459;28;20059;-65
2023/03/18 01:25:19;;;;;;;45.60;28.35;;;;;;;;;;5081857;28;20503;-65
2023/03/18 01:27:46;;;;;;;40.15;27.35;;;;;;;;;;5090942;28;20052;-65
2023/03/18 01:30:14;;;;;;;45.00;28.23;;;;;;;;;;5066605;28;20048;-65
2023/03/18 01:32:42;;;;;;;43.65;29.30;;;;;;;;;;5084687;28;20063;-65
2023/03/18 01:35:11;;;;;;;48.45;28.90;;;;;;;;;;5085828;28;20052;-65
2023/03/18 01:37:40;;;;;;;45.08;29.38;;;;;;;;;;5087676;28;20131;-65
2023/03/18 01:40:08;;;;;;;49.00;30.38;;;;;;;;;;5085370;28;20062;-65
2023/03/18 01:42:36;;;;;;;48.42;29.85;;;;;;;;;;5084024;28;20052;-65
2023/03/18 01:45:15;;;;;;;51.78;31.83;;;;;;;;;;5083337;28;20402;-65
2023/03/18 01:47:43;;;;;;;53.95;31.42;;;;;;;;;;5079716;28;20137;-65
2023/03/18 01:50:11;;;;;;;50.33;31.25;;;;;;;;;;5084499;28;20087;-65
2023/03/18 01:52:40;;;;;;;48.47;31.25;;;;;;;;;;5085596;28;20048;-65
2023/03/18 01:55:10;;;;;;;51.75;31.92;;;;;;;;;;5087748;28;20380;-65
2023/03/18 01:57:37;;;;;;;49.90;31.00;;;;;;;;;;5088010;28;20540;-65
2023/03/18 02:00:05;;;;;;;50.20;32.80;;;;;;;;;;5088153;28;20063;-65
2023/03/18 02:02:33;;;;;;;53.05;32.10;;;;;;;;;;5088863;28;20048;-64
2023/03/18 02:05:03;;;;;;;49.70;31.33;;;;;;;;;;5072075;28;20052;-65
2023/03/18 02:07:32;;;;;;;52.08;33.60;;;;;;;;;;5088592;28;20055;-64
2023/03/18 02:10:03;;;;;;;53.88;33.45;;;;;;;;;;5089474;28;20046;-64
2023/03/18 02:12:32;;;;;;;58.20;35.45;;;;;;;;;;5085631;28;20492;-65
2023/03/18 02:15:00;;;;;;;46.95;33.00;;;;;;;;;;5070742;28;20044;-65
2023/03/18 02:17:29;;;;;;;54.38;35.55;;;;;;;;;;5085808;28;20475;-64
2023/03/18 02:20:03;;;;;;;56.45;34.60;;;;;;;;;;5091131;28;20437;-65
2023/03/18 02:22:32;;;;;;;55.53;35.50;;;;;;;;;;5082668;28;20052;-65
2023/03/18 02:25:05;;;;;;;62.10;35.05;;;;;;;;;;5070202;28;20048;-65
2023/03/18 02:27:35;;;;;;;54.83;34.60;;;;;;;;;;5086131;28;20044;-65
2023/03/18 02:30:07;;;;;;;59.10;36.55;;;;;;;;;;5085007;28;20051;-65
2023/03/18 02:32:34;;;;;;;59.15;35.22;;;;;;;;;;5086507;28;20123;-65
2023/03/18 02:35:03;;;;;;;58.75;35.78;;;;;;;;;;5086695;28;20044;-65
2023/03/18 02:37:31;;;;;;;61.97;36.40;;;;;;;;;;5088168;28;20166;-65
2023/03/18 02:40:12;;;;;;;64.30;37.08;;;;;;;;;;5083967;28;20450;-64
2023/03/18 02:42:41;;;;;;;58.30;37.55;;;;;;;;;;5085736;28;20052;-64
2023/03/18 02:45:13;;;;;;;56.47;36.03;;;;;;;;;;5088292;28;20098;-65
2023/03/18 02:47:41;;;;;;;51.05;34.95;;;;;;;;;;5089913;28;20047;-65
2023/03/18 02:50:09;;;;;;;53.80;34.80;;;;;;;;;;5068121;28;20048;-64
2023/03/18 02:52:37;;;;;;;54.03;34.13;;;;;;;;;;5084153;28;20102;-65
2023/03/18 02:55:06;;;;;;;54.60;34.90;;;;;;;;;;5086505;28;20097;-64
2023/03/18 02:57:33;;;;;;;56.78;34.10;;;;;;;;;;5087291;28;20044;-65
2023/03/18 03:00:02;;;;;;;55.88;35.97;;;;;;;;;;5080631;28;20498;-65
2023/03/18 03:02:29;;;;;;;54.03;34.63;;;;;;;;;;5086004;28;20491;-65
2023/03/18 03:04:57;;;;;;;55.00;33.80;;;;;;;;;;5087660;28;20118;-64
2023/03/18 03:07:27;;;;;;;54.03;33.50;;;;;;;;;;5083378;28;20506;-64
2023/03/18 03:09:54;;;;;;;61.00;36.25;;;;;;;;;;5083983;28;20070;-64
2023/03/18 03:12:21;;;;;;;55.22;34.13;;;;;;;;;;5081953;28;20052;-65
2023/03/18 03:14:49;;;;;;;55.28;33.50;;;;;;;;;;5085370;28;20133;-64
2023/03/18 03:17:17;;;;;;;57.95;34.28;;;;;;;;;;5085007;28;20132;-64
2023/03/18 03:19:45;;;;;;;51.25;34.45;;;;;;;;;;5068228;28;20113;-64
2023/03/18 03:22:12;;;;;;;55.92;34.60;;;;;;;;;;5083194;28;20079;-64
2023/03/18 03:24:40;;;;;;;54.47;34.55;;;;;;;;;;5088224;28;20063;-64
2023/03/18 03:27:07;;;;;;;55.70;34.25;;;;;;;;;;5087400;28;20075;-65
2023/03/18 03:29:34;;;;;;;55.75;35.70;;;;;;;;;;5086198;28;20058;-65
2023/03/18 03:32:02;;;;;;;60.65;36.95;;;;;;;;;;5070237;28;20052;-65
2023/03/18 03:34:32;;;;;;;64.25;37.97;;;;;;;;;;5085043;28;20067;-65
2023/03/18 03:36:59;;;;;;;55.45;35.92;;;;;;;;;;5085417;28;20087;-64
2023/03/18 03:39:27;;;;;;;59.17;37.22;;;;;;;;;;5082703;28;20052;-64
2023/03/18 03:41:54;;;;;;;62.00;37.15;;;;;;;;;;5081677;28;20078;-64
2023/03/18 03:44:21;;;;;;;61.55;38.25;;;;;;;;;;5084006;28;20856;-64
2023/03/18 03:46:48;;;;;;;66.30;39.60;;;;;;;;;;5086851;28;20048;-65
2023/03/18 03:49:16;;;;;;;68.10;40.17;;;;;;;;;;5085734;28;20085;-65
2023/03/18 03:51:45;;;;;;;63.70;39.85;;;;;;;;;;5087687;28;20055;-64
2023/03/18 03:54:14;;;;;;;66.50;39.58;;;;;;;;;;5084146;28;20102;-64
2023/03/18 03:56:41;;;;;;;71.15;39.30;;;;;;;;;;5085494;28;20048;-64
2023/03/18 03:59:10;;;;;;;65.38;36.55;;;;;;;;;;5086943;28;20048;-65
2023/03/18 04:01:38;;;;;;;63.53;37.53;;;;;;;;;;5084998;28;20499;-64
2023/03/18 04:04:05;;;;;;;70.80;39.33;;;;;;;;;;5085142;28;20040;-64
2023/03/18 04:06:32;;;;;;;65.97;38.33;;;;;;;;;;5082543;28;20078;-64
2023/03/18 04:09:02;;;;;;;63.15;38.47;;;;;;;;;;5086781;28;20052;-64
2023/03/18 04:11:29;;;;;;;66.10;39.03;;;;;;;;;;5088036;28;20486;-65
2023/03/18 04:13:57;;;;;;;72.78;40.85;;;;;;;;;;5087486;28;20485;-65
2023/03/18 04:16:24;;;;;;;83.57;44.35;;;;;;;;;;5085561;28;20055;-65
2023/03/18 04:18:51;;;;;;;89.75;43.95;;;;;;;;;;5085130;28;20132;-65
2023/03/18 04:21:19;;;;;;;79.05;44.92;;;;;;;;;;5067120;28;20048;-64
2023/03/18 04:23:46;;;;;;;83.07;45.33;;;;;;;;;;5083362;28;20486;-65
2023/03/18 04:26:14;;;;;;;83.65;45.78;;;;;;;;;;5088899;28;20510;-64
2023/03/18 04:28:42;;;;;;;93.25;45.92;;;;;;;;;;5083057;28;20059;-65
2023/03/18 04:31:09;;;;;;;88.43;45.53;;;;;;;;;;5087309;28;20047;-64
2023/03/18 04:33:36;;;;;;;118.90;48.72;;;;;;;;;;5064098;28;20076;-64
2023/03/18 04:36:04;;;;;;;220.25;52.50;;;;;;;;;;5084344;28;20132;-64
2023/03/18 04:38:31;;;;;;;284.73;52.45;;;;;;;;;;5085678;28;20055;-64
2023/03/18 04:40:58;;;;;;;337.85;50.28;;;;;;;;;;5086929;28;20048;-65
2023/03/18 04:43:27;;;;;;;381.58;50.40;;;;;;;;;;5090046;28;20044;-65
2023/03/18 04:45:54;;;;;;;546.50;53.75;;;;;;;;;;5086850;28;20114;-64
2023/03/18 04:48:22;;;;;;;412.33;47.72;;;;;;;;;;5082687;28;20047;-64
2023/03/18 04:50:49;;;;;;;385.67;45.55;;;;;;;;;;5083140;28;20056;-65
2023/03/18 04:53:17;;;;;;;385.50;44.67;;;;;;;;;;5086677;28;20056;-64
2023/03/18 04:55:44;;;;;;;436.60;49.10;;;;;;;;;;5089038;28;20062;-64
2023/03/18 04:58:11;;;;;;;335.65;45.63;;;;;;;;;;5088601;28;20047;-64
2023/03/18 05:00:40;;;;;;;451.38;49.88;;;;;;;;;;5088825;28;20505;-64
2023/03/18 05:03:07;;;;;;;479.10;51.58;;;;;;;;;;5091121;28;20126;-65
2023/03/18 05:05:34;;;;;;;323.33;45.30;;;;;;;;;;5083598;28;20039;-64
2023/03/18 05:08:02;;;;;;;357.45;48.30;;;;;;;;;;5087652;28;20079;-65
2023/03/18 05:10:29;;;;;;;361.48;49.03;;;;;;;;;;5082350;28;20410;-64
2023/03/18 05:12:56;;;;;;;365.40;49.63;;;;;;;;;;5089248;28;20459;-65
2023/03/18 05:15:24;;;;;;;433.75;49.75;;;;;;;;;;5069161;28;20054;-65
2023/03/18 05:17:53;;;;;;;348.10;48.28;;;;;;;;;;5084831;28;20491;-65
2023/03/18 05:20:21;;;;;;;632.92;55.30;;;;;;;;;;5084030;28;20437;-64
2023/03/18 05:22:48;;;;;;;412.40;48.05;;;;;;;;;;5088063;28;20843;-65
2023/03/18 05:25:15;;;;;;;526.75;54.78;;;;;;;;;;5069961;28;20048;-65
2023/03/18 05:27:43;;;;;;;511.52;53.72;;;;;;;;;;5085996;28;20052;-64
2023/03/18 05:30:11;;;;;;;446.80;53.47;;;;;;;;;;5084290;28;20048;-65
2023/03/18 05:32:38;;;;;;;652.72;60.45;;;;;;;;;;5089133;28;20442;-65
2023/03/18 05:35:08;;;;;;;622.47;57.70;;;;;;;;;;5087825;28;20118;-64
2023/03/18 05:37:35;;;;;;;643.20;62.45;;;;;;;;;;5090349;28;20084;-64
2023/03/18 05:40:03;;;;;;;580.60;55.85;;;;;;;;;;5089186;28;20047;-64
2023/03/18 05:42:30;;;;;;;420.58;51.10;;;;;;;;;;5087210;28;20047;-64
2023/03/18 05:44:58;;;;;;;436.83;48.88;;;;;;;;;;5088598;28;20044;-64
2023/03/18 05:47:25;;;;;;;386.52;43.40;;;;;;;;;;5089187;28;20048;-64
2023/03/18 05:49:52;;;;;;;434.63;47.85;;;;;;;;;;5091253;28;20128;-65
2023/03/18 05:52:21;;;;;;;376.88;42.05;;;;;;;;;;5089455;28;20056;-64
2023/03/18 05:54:49;;;;;;;484.00;46.13;;;;;;;;;;5087466;28;20048;-65
2023/03/18 05:57:16;;;;;;;365.30;42.47;;;;;;;;;;5089643;28;20067;-64
2023/03/18 05:59:44;;;;;;;340.35;37.60;;;;;;;;;;5090277;28;20147;-65
2023/03/18 06:02:11;;;;;;;341.00;36.03;;;;;;;;;;5087659;28;20479;-64
2023/03/18 06:04:39;;;;;;;397.42;35.50;;;;;;;;;;5086819;28;20071;-65
2023/03/18 06:07:06;;;;;;;331.63;35.97;;;;;;;;;;5087615;28;20461;-64
2023/03/18 06:09:35;;;;;;;387.23;32.20;;;;;;;;;;5083446;28;20044;-64
2023/03/18 06:12:04;;;;;;;447.23;33.17;;;;;;;;;;5088252;28;20398;-65
2023/03/18 06:14:31;;;;;;;370.73;30.55;;;;;;;;;;5089296;28;20044;-64
2023/03/18 06:16:59;;;;;;;370.38;29.98;;;;;;;;;;5086184;28;20043;-64
2023/03/18 06:19:27;;;;;;;753.95;37.20;;;;;;;;;;5089168;28;20051;-64
2023/03/18 06:21:54;;;;;;;420.35;34.45;;;;;;;;;;5086290;28;20101;-64
2023/03/18 06:24:21;;;;;;;446.30;34.83;;;;;;;;;;5090114;28;20044;-65
2023/03/18 06:26:50;;;;;;;462.88;39.33;;;;;;;;;;5085941;28;20395;-65
2023/03/18 06:29:18;;;;;;;325.17;38.22;;;;;;;;;;5088198;28;20078;-65
2023/03/18 06:31:46;;;;;;;540.45;44.85;;;;;;;;;;5085091;28;20053;-65
2023/03/18 06:34:13;;;;;;;419.65;45.67;;;;;;;;;;5086163;28;20044;-64
2023/03/18 06:36:41;;;;;;;256.67;44.63;;;;;;;;;;5085773;28;20048;-64
2023/03/18 06:39:09;;;;;;;265.70;49.95;;;;;;;;;;5088829;28;20177;-65
2023/03/18 06:41:36;;;;;;;226.10;47.42;;;;;;;;;;5082539;28;20051;-65
2023/03/18 06:44:05;;;;;;;228.88;53.22;;;;;;;;;;5088918;28;20047;-65
2023/03/18 06:46:33;;;;;;;183.85;52.72;;;;;;;;;;5068447;28;20152;-65
2023/03/18 06:49:00;;;;;;;204.73;55.65;;;;;;;;;;5089032;28;20070;-65
2023/03/18 06:51:28;;;;;;;169.32;53.42;;;;;;;;;;5088676;28;20052;-64
2023/03/18 06:53:55;;;;;;;158.27;56.55;;;;;;;;;;5088396;28;20078;-64
2023/03/18 06:56:22;;;;;;;156.35;55.28;;;;;;;;;;5088312;28;20055;-65
2023/03/18 06:58:50;;;;;;;155.60;57.58;;;;;;;;;;5088957;28;20051;-64
2023/03/18 07:01:19;;;;;;;149.15;57.80;;;;;;;;;;5088047;28;20050;-64
2023/03/18 07:03:48;;;;;;;139.20;57.80;;;;;;;;;;5086467;28;20062;-65
2023/03/18 07:06:15;;;;;;;138.68;58.13;;;;;;;;;;5066073;28;20074;-65
2023/03/18 07:08:43;;;;;;;136.57;56.03;;;;;;;;;;5086191;28;20044;-64
2023/03/18 07:11:10;;;;;;;122.18;54.92;;;;;;;;;;5086801;28;20058;-64
2023/03/18 07:13:37;;;;;;;125.13;53.70;;;;;;;;;;5067632;28;20036;-65
2023/03/18 07:16:05;;;;;;;113.78;51.47;;;;;;;;;;5086418;28;20051;-65
2023/03/18 07:18:33;;;;;;;98.55;49.58;;;;;;;;;;5084261;28;20052;-65
2023/03/18 07:21:01;;;;;;;97.10;49.28;;;;;;;;;;5083022;28;20047;-65
2023/03/18 07:23:28;;;;;;;87.28;48.20;;;;;;;;;;5082053;28;20051;-65
2023/03/18 07:25:56;;;;;;;94.82;48.03;;;;;;;;;;5074701;28;20051;-65
2023/03/18 07:28:23;;;;;;;82.63;44.78;;;;;;;;;;5063831;28;20058;-64
2023/03/18 07:30:50;;;;;;;82.53;45.70;;;;;;;;;;5087755;28;20483;-65
2023/03/18 07:33:18;;;;;;;86.78;43.42;;;;;;;;;;5083634;28;20048;-66
2023/03/18 07:35:47;;;;;;;81.65;44.15;;;;;;;;;;5089108;28;20060;-65
2023/03/18 07:38:14;;;;;;;68.50;41.20;;;;;;;;;;5084528;28;20052;-65
2023/03/18 07:40:42;;;;;;;73.03;41.80;;;;;;;;;;5083687;28;20052;-65
2023/03/18 07:43:09;;;;;;;68.45;40.47;;;;;;;;;;5083216;28;20053;-65
2023/03/18 07:45:37;;;;;;;71.43;41.00;;;;;;;;;;5085188;28;20051;-65
2023/03/18 07:48:04;;;;;;;63.38;38.42;;;;;;;;;;5081383;28;20051;-66
2023/03/18 07:50:33;;;;;;;68.38;40.53;;;;;;;;;;5083855;28;20081;-67
2023/03/18 07:53:02;;;;;;;66.13;39.47;;;;;;;;;;5087655;28;20056;-67
2023/03/18 07:55:29;;;;;;;66.22;38.75;;;;;;;;;;5086992;28;20066;-66
2023/03/18 07:57:57;;;;;;;64.85;37.97;;;;;;;;;;5087634;28;20056;-67
2023/03/18 08:00:24;;;;;;;60.03;37.90;;;;;;;;;;5085723;28;20052;-66
2023/03/18 08:02:52;;;;;;;66.05;40.20;;;;;;;;;;5086349;28;20679;-66
2023/03/18 08:05:20;;;;;;;62.30;38.88;;;;;;;;;;5080381;28;20071;-66
2023/03/18 08:07:48;;;;;;;59.72;36.92;;;;;;;;;;5086695;28;20043;-67
2023/03/18 08:10:17;;;;;;;56.80;37.75;;;;;;;;;;5085016;28;20079;-66
2023/03/18 08:12:44;;;;;;;56.33;36.17;;;;;;;;;;5084249;28;20597;-66
2023/03/18 08:15:12;;;;;;;54.08;35.80;;;;;;;;;;5084832;28;20048;-66
2023/03/18 08:17:39;;;;;;;54.75;36.58;;;;;;;;;;5086029;28;20180;-67
2023/03/18 08:20:07;;;;;;;51.13;35.22;;;;;;;;;;5080334;28;20052;-67
2023/03/18 08:22:34;;;;;;;59.25;35.13;;;;;;;;;;5085017;28;20048;-67
2023/03/18 08:25:02;;;;;;;52.90;33.63;;;;;;;;;;5084552;28;20067;-67
2023/03/18 08:27:30;;;;;;;51.25;32.75;;;;;;;;;;5085333;28;20119;-66
2023/03/18 08:29:58;;;;;;;50.80;31.25;;;;;;;;;;5085802;28;20055;-66
2023/03/18 08:32:26;;;;;;;52.35;32.83;;;;;;;;;;5082806;28;20040;-67
2023/03/18 08:34:54;;;;;;;47.30;32.08;;;;;;;;;;5076965;28;20056;-66
2023/03/18 08:37:21;;;;;;;46.65;31.35;;;;;;;;;;5084075;28;20048;-66
2023/03/18 08:39:48;;;;;;;47.15;32.03;;;;;;;;;;5083076;28;20132;-66
2023/03/18 08:42:16;;;;;;;46.50;29.95;;;;;;;;;;5085004;28;20048;-66
2023/03/18 08:44:47;;;;;;;50.58;31.33;;;;;;;;;;5087582;28;20072;-67
2023/03/18 08:47:15;;;;;;;46.85;30.05;;;;;;;;;;5079840;28;20051;-67
2023/03/18 08:49:43;;;;;;;46.80;29.52;;;;;;;;;;5085851;28;20043;-66
2023/03/18 08:52:10;;;;;;;49.15;29.83;;;;;;;;;;5066296;28;20068;-67
2023/03/18 08:54:38;;;;;;;46.75;29.73;;;;;;;;;;5083574;28;20044;-67
2023/03/18 08:57:05;;;;;;;54.20;29.95;;;;;;;;;;5085484;28;20083;-66
2023/03/18 08:59:32;;;;;;;44.95;28.95;;;;;;;;;;5086461;28;20067;-66
2023/03/18 09:02:01;;;;;;;43.75;28.48;;;;;;;;;;5086221;28;20044;-66
2023/03/18 09:04:29;;;;;;;49.42;29.17;;;;;;;;;;5085218;28;20410;-67
2023/03/18 09:06:56;;;;;;;52.30;30.15;;;;;;;;;;5085619;28;20052;-67
2023/03/18 09:09:23;;;;;;;45.72;28.15;;;;;;;;;;5086860;28;20048;-67
2023/03/18 09:11:51;;;;;;;40.65;27.08;;;;;;;;;;5087766;28;20040;-67
2023/03/18 09:14:19;;;;;;;42.17;27.00;;;;;;;;;;5086360;28;20044;-66
2023/03/18 09:16:46;;;;;;;46.70;27.13;;;;;;;;;;5082833;28;20407;-66
2023/03/18 09:19:14;;;;;;;39.05;25.67;;;;;;;;;;5086700;28;20083;-67
2023/03/18 09:21:42;;;;;;;36.22;24.55;;;;;;;;;;5081234;28;20098;-66
2023/03/18 09:24:09;;;;;;;40.83;23.55;;;;;;;;;;5064376;28;20048;-67
2023/03/18 09:26:38;;;;;;;36.55;23.77;;;;;;;;;;5087748;28;20082;-67
2023/03/18 09:29:05;;;;;;;32.47;20.50;;;;;;;;;;5086664;28;20059;-67
2023/03/18 09:31:32;;;;;;;32.03;21.20;;;;;;;;;;5090837;28;20040;-67
2023/03/18 09:34:00;;;;;;;29.02;19.70;;;;;;;;;;5090230;28;20051;-67
2023/03/18 09:36:29;;;;;;;30.00;20.10;;;;;;;;;;5091107;28;20094;-68
2023/03/18 09:38:56;;;;;;;36.05;21.20;;;;;;;;;;5090798;28;20056;-67
2023/03/18 09:41:29;;;;;;;29.73;19.60;;;;;;;;;;5083294;28;20048;-67
2023/03/18 09:43:57;;;;;;;;;;;;;;;;;;5074468;28;20476;-67
2023/03/18 09:46:27;;;;;;;37.25;20.98;;;;;;;;;;5085274;28;19962;-66
2023/03/18 09:49:13;;;;;;;34.13;21.42;;;;;;;;;;5089573;28;20048;-67
2023/03/18 09:51:53;;;;;;;31.75;20.02;;;;;;;;;;5087156;28;20062;-67
2023/03/18 09:54:26;;;;;;;26.70;17.77;;;;;;;;;;5084457;28;20063;-67
2023/03/18 09:56:54;;;;;;;32.07;19.27;;;;;;;;;;5079109;28;20475;-67
2023/03/18 09:59:24;;;;;;;25.63;18.00;;;;;;;;;;5090847;28;20052;-67
2023/03/18 10:01:53;;;;;;;27.55;17.13;;;;;;;;;;5066553;28;20586;-67
2023/03/18 10:04:22;;;;;;;26.42;17.05;;;;;;;;;;5088528;28;20559;-68
2023/03/18 10:06:54;;;;;;;28.17;15.10;;;;;;;;;;5085053;28;20044;-67
2023/03/18 10:09:25;;;;;;;24.38;16.52;;;;;;;;;;5083295;28;20170;-67
2023/03/18 10:11:54;;;;;;;28.60;16.20;;;;;;;;;;5090238;28;20052;-67
2023/03/18 10:14:29;;;;;;;24.60;15.60;;;;;;;;;;5083262;28;20044;-67
2023/03/18 10:17:01;;;;;;;22.15;15.10;;;;;;;;;;5068981;28;20060;-67
2023/03/18 10:19:28;;;;;;;21.25;14.27;;;;;;;;;;5069250;28;20052;-67
2023/03/18 10:22:02;;;;;;;21.42;14.27;;;;;;;;;;5086398;28;20044;-67
2023/03/18 10:24:32;;;;;;;21.63;14.55;;;;;;;;;;5084851;28;20046;-67
2023/03/18 10:27:03;;;;;;;21.17;13.68;;;;;;;;;;5087603;28;20479;-68
2023/03/18 10:29:36;;;;;;;21.08;13.38;;;;;;;;;;5066572;28;20582;-67
2023/03/18 10:32:11;;;;;;;19.35;11.73;;;;;;;;;;5085715;28;20074;-68
2023/03/18 10:34:42;;;;;;;15.63;10.77;;;;;;;;;;5085644;28;20426;-67
2023/03/18 10:37:18;;;;;;;19.80;11.25;;;;;;;;;;5083063;28;20434;-67
2023/03/18 10:39:46;;;;;;;15.55;9.45;;;;;;;;;;5089003;28;20506;-67
2023/03/18 10:42:19;;;;;;;12.75;7.85;;;;;;;;;;5069839;28;20102;-67
2023/03/18 10:44:47;;;;;;;11.02;7.82;;;;;;;;;;5064856;28;20040;-67
2023/03/18 10:47:18;;;;;;;14.43;8.45;;;;;;;;;;5082523;28;20469;-67
2023/03/18 10:49:49;;;;;;;13.32;8.35;;;;;;;;;;5081685;28;20410;-67
2023/03/18 10:52:20;;;;;;;10.10;6.88;;;;;;;;;;5077944;28;20056;-67
2023/03/18 10:54:51;;;;;;;10.38;6.70;;;;;;;;;;5061634;28;20048;-67
2023/03/18 10:57:19;;;;;;;7.47;4.70;;;;;;;;;;5086421;28;20052;-67
2023/03/18 10:59:46;;;;;;;7.00;4.38;;;;;;;;;;5082463;28;20044;-66
2023/03/18 11:02:16;;;;;;;8.48;4.75;;;;;;;;;;5067556;28;20047;-67
2023/03/18 11:04:46;;;;;;;5.95;3.72;;;;;;;;;;5084577;28;20032;-67
2023/03/18 11:07:15;;;;;;;4.95;3.28;;;;;;;;;;5080686;28;20107;-67
2023/03/18 11:09:44;;;;;;;6.90;4.18;;;;;;;;;;5084029;28;20044;-67
2023/03/18 11:12:15;;;;;;;5.90;3.95;;;;;;;;;;5088760;28;20499;-67
2023/03/18 11:14:47;;;;;;;6.13;3.95;;;;;;;;;;5085641;28;20040;-67
2023/03/18 11:17:20;;;;;;;4.90;3.20;;;;;;;;;;5088045;28;20494;-67
2023/03/18 11:19:48;;;;;;;3.35;2.58;;;;;;;;;;5084890;28;20043;-67
2023/03/18 11:22:18;;;;;;;5.25;3.15;;;;;;;;;;5083482;28;20059;-67
2023/03/18 11:25:00;;;;;;;3.78;2.30;;;;;;;;;;5086253;28;20084;-67
2023/03/18 11:27:30;;;;;;;4.57;2.28;;;;;;;;;;5085865;28;20048;-66
2023/03/18 11:29:58;;;;;;;3.25;1.63;;;;;;;;;;5084931;28;20688;-67
2023/03/18 11:32:27;;;;;;;6.60;2.60;;;;;;;;;;5083063;28;20063;-67
2023/03/18 11:34:57;;;;;;;3.30;1.50;;;;;;;;;;5082303;28;20054;-67
2023/03/18 11:37:27;;;;;;;3.53;2.03;;;;;;;;;;5080500;28;20097;-67
2023/03/18 11:40:06;;;;;;;5.78;1.75;;;;;;;;;;5086645;28;20407;-67
2023/03/18 11:42:34;;;;;;;3.88;1.80;;;;;;;;;;5085442;28;20121;-67
2023/03/18 11:45:03;;;;;;;3.78;2.10;;;;;;;;;;5084595;28;20044;-67
2023/03/18 11:47:31;;;;;;;3.03;1.90;;;;;;;;;;5085530;28;20044;-67
2023/03/18 11:49:58;;;;;;;3.17;1.90;;;;;;;;;;5077740;28;20055;-67
2023/03/18 11:52:32;;;;;;;4.00;2.50;;;;;;;;;;5080722;28;20058;-67
2023/03/18 11:55:20;;;;;;;3.78;2.38;;;;;;;;;;5087419;28;20047;-67
2023/03/18 11:58:04;;;;;;;4.70;2.60;;;;;;;;;;5070403;28;20404;-67
2023/03/18 12:00:34;;;;;;;3.10;1.70;;;;;;;;;;5087036;28;20072;-67
2023/03/18 12:03:19;;;;;;;4.32;2.40;;;;;;;;;;5087382;28;20048;-67
2023/03/18 12:05:53;;;;;;;4.35;2.50;;;;;;;;;;5084358;28;20048;-67
2023/03/18 12:08:30;;;;;;;4.18;1.90;;;;;;;;;;5087730;28;20055;-67
2023/03/18 12:11:05;;;;;;;4.18;1.95;;;;;;;;;;5085172;28;20044;-68
2023/03/18 12:13:39;;;;;;;3.85;1.63;;;;;;;;;;5085027;28;20048;-67
2023/03/18 12:16:11;;;;;;;3.53;1.63;;;;;;;;;;5082350;28;20155;-67
2023/03/18 12:18:49;;;;;;;4.22;2.28;;;;;;;;;;5082847;28;20044;-67
2023/03/18 12:21:25;;;;;;;4.10;2.40;;;;;;;;;;5062310;28;20048;-67
2023/03/18 12:23:56;;;;;;;4.50;2.40;;;;;;;;;;5085375;28;20051;-67
2023/03/18 12:26:27;;;;;;;5.95;3.75;;;;;;;;;;5081987;28;20059;-67
2023/03/18 12:29:24;;;;;;;5.57;3.85;;;;;;;;;;5083227;28;20040;-67
2023/03/18 12:32:04;;;;;;;7.72;3.90;;;;;;;;;;5086572;28;20073;-67
2023/03/18 12:34:40;;;;;;;4.88;3.25;;;;;;;;;;5067731;28;20052;-67
2023/03/18 12:37:17;;;;;;;6.40;3.40;;;;;;;;;;5081175;28;20047;-67
2023/03/18 12:39:52;;;;;;;7.18;3.83;;;;;;;;;;5085632;28;20570;-67
2023/03/18 12:42:27;;;;;;;6.93;3.08;;;;;;;;;;5082074;28;20532;-67
2023/03/18 12:45:00;;;;;;;4.72;2.78;;;;;;;;;;5085714;28;20391;-68
2023/03/18 12:47:28;;;;;;;;;;;;;;;;;;5066932;28;20051;-67
2023/03/18 12:49:58;;;;;;;5.75;3.05;;;;;;;;;;5066990;28;19967;-68
2023/03/18 12:52:28;;;;;;;6.93;3.38;;;;;;;;;;5085829;28;20056;-67
2023/03/18 12:55:00;;;;;;;5.03;3.00;;;;;;;;;;5084296;28;20466;-67
2023/03/18 12:57:31;;;;;;;4.00;2.65;;;;;;;;;;5081525;28;20048;-67
2023/03/18 13:00:05;;;;;;;6.10;3.13;;;;;;;;;;5081138;28;20051;-67
2023/03/18 13:02:42;;;;;;;6.35;3.33;;;;;;;;;;5088240;28;20044;-67
2023/03/18 13:05:17;;;;;;;5.53;3.15;;;;;;;;;;5090380;28;20048;-67
2023/03/18 13:07:48;;;;;;;6.85;2.67;;;;;;;;;;5086093;28;20144;-67
2023/03/18 13:10:20;;;;;;;6.05;3.13;;;;;;;;;;5090150;28;20130;-67
2023/03/18 13:12:49;;;;;;;4.07;2.70;;;;;;;;;;5070436;28;20048;-67
2023/03/18 13:15:21;;;;;;;4.97;2.50;;;;;;;;;;5086960;28;20045;-67
2023/03/18 13:17:51;;;;;;;3.90;2.50;;;;;;;;;;5072036;28;20564;-67
2023/03/18 13:20:21;;;;;;;6.78;2.75;;;;;;;;;;5092646;28;20528;-67
2023/03/18 13:23:05;;;;;;;3.47;2.40;;;;;;;;;;5087857;28;20047;-67
2023/03/18 13:25:39;;;;;;;4.97;2.42;;;;;;;;;;5088623;28;20062;-67
2023/03/18 13:28:25;;;;;;;3.15;2.13;;;;;;;;;;5088161;28;20420;-67
2023/03/18 13:31:10;;;;;;;4.32;2.10;;;;;;;;;;5082961;28;20057;-67
2023/03/18 13:33:46;;;;;;;4.05;2.40;;;;;;;;;;5082569;28;20048;-67
2023/03/18 13:36:21;;;;;;;5.57;2.70;;;;;;;;;;5085951;28;20044;-68
2023/03/18 13:38:56;;;;;;;3.38;2.28;;;;;;;;;;5086670;28;20048;-68
2023/03/18 13:41:45;;;;;;;3.70;1.90;;;;;;;;;;5088975;28;20449;-67
2023/03/18 13:44:16;;;;;;;3.65;1.95;;;;;;;;;;5053696;28;20058;-67
2023/03/18 13:46:47;;;;;;;3.05;1.65;;;;;;;;;;5070418;28;20332;-67
2023/03/18 13:49:20;;;;;;;3.70;1.83;;;;;;;;;;5070409;28;20529;-67
2023/03/18 13:51:52;;;;;;;4.30;2.17;;;;;;;;;;5046878;28;20094;-67
2023/03/18 13:54:20;;;;;;;4.13;1.90;;;;;;;;;;5054616;28;20551;-67
2023/03/18 13:56:51;;;;;;;4.43;2.20;;;;;;;;;;5056788;28;20131;-67
2023/03/18 13:59:37;;;;;;;4.10;2.30;;;;;;;;;;5057004;28;20053;-67
2023/03/18 14:02:19;;;;;;;5.38;2.40;;;;;;;;;;5053634;28;20484;-66
2023/03/18 14:04:48;;;;;;;5.40;2.55;;;;;;;;;;5040416;28;20530;-68
2023/03/18 14:07:17;;;;;;;3.75;2.67;;;;;;;;;;5055764;28;20521;-67
2023/03/18 14:09:50;;;;;;;5.32;2.65;;;;;;;;;;5045571;28;20056;-67
2023/03/18 14:12:19;;;;;;;6.13;2.95;;;;;;;;;;5042473;28;20048;-67
2023/03/18 14:15:08;;;;;;;5.20;2.80;;;;;;;;;;5046767;28;20133;-66
2023/03/18 14:17:45;;;;;;;6.15;3.15;;;;;;;;;;5046440;28;20036;-67
2023/03/18 14:20:25;;;;;;;5.78;3.20;;;;;;;;;;5052146;28;20057;-67
2023/03/18 14:22:54;;;;;;;7.43;3.63;;;;;;;;;;5041160;28;20132;-67
2023/03/18 14:25:37;;;;;;;4.53;3.20;;;;;;;;;;5042768;28;20045;-66
2023/03/18 14:28:18;;;;;;;8.87;2.83;;;;;;;;;;5049901;28;20048;-66
2023/03/18 14:30:47;;;;;;;6.22;3.20;;;;;;;;;;5049902;28;20283;-67
2023/03/18 14:33:41;;;;;;;7.65;3.97;;;;;;;;;;5046203;28;20124;-67
2023/03/18 14:36:10;;;;;;;7.70;4.20;;;;;;;;;;5047467;28;20368;-67